Time;durP1;ratioP1;P1;durP2;ratioP2;P2;SDS_P1;SDS_P2;PMS_P1;PMS_P2;Temp;Humidity;BMP_temperature;BMP_pressure;BME280_temperature;BME280_humidity;BME280_pressure;Samples;Min_cycle;Max_cycle;Signal;HPM_P1;HPM_P2
2023/01/01 00:33:02;;;;;;;;;6.33;6.00;;;;;15.38;89.07;100910.88;4921582;28;45369;-81
2023/01/01 00:50:22;;;;;;;;;4.67;4.33;;;;;15.54;90.21;100939.16;4924180;28;45469;-80
2023/01/01 01:04:36;;;;;;;;;7.00;7.00;;;;;15.52;91.76;100944.72;4826109;29;45475;-81
2023/01/01 01:07:17;;;;;;;;;4.00;4.00;;;;;15.18;91.19;100897.44;4776325;29;45295;-82
2023/01/01 02:11:15;;;;;;;;;8.00;8.00;;;;;15.72;97.87;100994.00;4797403;29;45778;-83
2023/01/01 02:52:10;;;;;;;;;4.00;4.00;;;;;15.42;100.00;101000.53;4870846;29;45842;-82
2023/01/01 03:33:00;;;;;;;;;8.00;8.00;;;;;15.50;100.00;101029.81;4933632;28;45721;-84
2023/01/01 03:35:59;;;;;;;;;9.67;7.67;;;;;15.60;100.00;101036.63;4963239;28;45332;-83
2023/01/01 03:38:27;;;;;;;;;7.33;7.33;;;;;15.60;100.00;101044.69;5039308;28;45327;-82
2023/01/01 03:44:37;;;;;;;;;5.00;5.00;;;;;15.21;100.00;100990.75;4985603;28;45547;-83
2023/01/01 03:48:04;;;;;;;;;;;;;;;;;;;;;
2023/01/01 04:05:09;;;;;;;;;;;;;;;;;;;;;
2023/01/01 04:08:51;;;;;;;;;;;;;;;;;;;;;
2023/01/01 04:15:34;;;;;;;;;;;;;;;;;;;;;
2023/01/01 04:40:27;;;;;;;;;7.33;6.33;;;;;14.99;100.00;101042.53;4869108;29;45553;-83
2023/01/01 04:54:28;;;;;;;;;;;;;;;;;;;;;
2023/01/01 04:58:05;;;;;;;;;;;;;;;;;;;;;
2023/01/01 05:01:34;;;;;;;;;5.67;5.33;;;;;14.93;100.00;101055.88;4736287;30;68937;-83
2023/01/01 05:08:28;;;;;;;;;6.67;6.67;;;;;15.37;100.00;101120.78;4755961;29;45557;-83
2023/01/01 05:18:50;;;;;;;;;5.00;5.00;;;;;14.86;100.00;101061.16;4662282;30;45514;-83
2023/01/01 06:16:43;;;;;;;;;;;;;;;;;;;;;
2023/01/01 06:36:55;;;;;;;;;7.00;7.00;;;;;14.87;100.00;101161.81;4933120;28;45878;-83
2023/01/01 06:39:21;;;;;;;;;10.00;9.67;;;;;14.94;100.00;101169.91;5048959;28;45447;-83
2023/01/01 06:41:46;;;;;;;;;7.67;6.33;;;;;15.04;100.00;101193.66;5041093;28;47234;-83
2023/01/01 06:44:11;;;;;;;;;5.67;5.00;;;;;14.95;100.00;101172.41;5058798;28;45199;-84
2023/01/01 06:46:37;;;;;;;;;5.67;5.00;;;;;15.06;100.00;101189.78;5059628;28;45270;-83
2023/01/01 06:49:05;;;;;;;;;9.00;6.00;;;;;15.01;100.00;101179.66;5046345;28;45328;-83
2023/01/01 06:51:36;;;;;;;;;8.00;7.00;;;;;14.98;100.00;101177.38;5067274;28;45320;-84
2023/01/01 06:54:02;;;;;;;;;6.33;5.00;;;;;14.98;100.00;101187.25;5043047;28;46099;-84
2023/01/01 06:56:29;;;;;;;;;7.00;4.00;;;;;14.95;100.00;101201.84;5044416;28;45462;-84
2023/01/01 06:58:54;;;;;;;;;7.33;7.33;;;;;14.89;100.00;101194.56;5050420;28;45283;-83
2023/01/01 07:01:22;;;;;;;;;6.33;5.67;;;;;14.82;100.00;101191.00;5051909;28;46260;-85
2023/01/01 07:03:58;;;;;;;;;9.33;6.00;;;;;14.88;100.00;101206.31;5059299;28;45683;-84
2023/01/01 07:06:25;;;;;;;;;7.00;6.33;;;;;14.86;100.00;101211.00;5054114;28;45328;-84
2023/01/01 07:08:51;;;;;;;;;6.00;3.67;;;;;14.89;100.00;101221.34;5044601;28;45392;-84
2023/01/01 07:11:17;;;;;;;;;7.67;6.33;;;;;14.84;100.00;101203.19;5044022;28;46172;-84
2023/01/01 07:13:42;;;;;;;;;8.67;8.00;;;;;14.81;100.00;101208.91;5044139;28;48045;-84
2023/01/01 07:16:08;;;;;;;;;7.67;6.33;;;;;14.83;100.00;101233.63;5062258;28;45328;-85
2023/01/01 07:18:33;;;;;;;;;4.00;2.00;;;;;14.82;100.00;101236.50;5040909;28;45328;-85
2023/01/01 07:21:04;;;;;;;;;9.00;6.00;;;;;14.83;100.00;101241.66;5037303;28;46557;-85
2023/01/01 07:23:31;;;;;;;;;5.67;5.33;;;;;14.75;100.00;101231.03;5042118;28;46384;-84
2023/01/01 07:25:57;;;;;;;;;6.67;5.33;;;;;14.77;100.00;101234.38;5049113;28;45267;-85
2023/01/01 07:28:25;;;;;;;;;7.00;6.00;;;;;14.75;100.00;101234.56;5043762;28;45343;-83
2023/01/01 07:30:52;;;;;;;;;7.33;7.00;;;;;14.78;100.00;101236.03;5062844;28;45560;-84
2023/01/01 07:33:22;;;;;;;;;5.00;5.00;;;;;14.74;100.00;101234.75;5063819;28;48035;-84
2023/01/01 07:35:48;;;;;;;;;6.67;6.67;;;;;14.72;100.00;101242.94;5082402;28;45286;-85
2023/01/01 07:38:14;;;;;;;;;6.33;6.33;;;;;14.69;100.00;101254.03;5082267;28;45321;-84
2023/01/01 07:40:40;;;;;;;;;6.00;6.00;;;;;14.73;100.00;101270.53;5082378;28;45454;-84
2023/01/01 07:43:07;;;;;;;;;8.33;6.67;;;;;14.70;100.00;101265.56;5063150;28;48358;-84
2023/01/01 07:45:33;;;;;;;;;9.33;7.00;;;;;14.64;100.00;101264.47;5064273;28;45389;-83
2023/01/01 07:48:00;;;;;;;;;5.67;5.00;;;;;14.71;100.00;101277.91;5063953;28;45255;-84
2023/01/01 07:50:28;;;;;;;;;4.67;4.00;;;;;14.69;100.00;101282.66;5063741;28;47136;-83
2023/01/01 07:52:53;;;;;;;;;5.33;5.33;;;;;14.64;100.00;101277.88;5081878;28;46367;-84
2023/01/01 07:55:19;;;;;;;;;5.00;5.00;;;;;14.61;100.00;101275.56;5081637;28;45263;-84
2023/01/01 07:57:47;;;;;;;;;6.00;6.00;;;;;14.67;100.00;101282.00;5082002;28;45417;-84
2023/01/01 08:00:18;;;;;;;;;6.00;6.00;;;;;14.68;100.00;101281.81;5081911;28;45556;-83
2023/01/01 08:02:44;;;;;;;;;5.67;5.67;;;;;14.60;100.00;101261.34;5063293;28;47409;-83
2023/01/01 08:05:09;;;;;;;;;6.00;6.00;;;;;14.70;100.00;101295.81;5080971;28;45567;-84
2023/01/01 08:07:35;;;;;;;;;5.33;5.00;;;;;14.57;100.00;101282.28;5063361;28;45406;-84
2023/01/01 08:10:01;;;;;;;;;6.67;5.33;;;;;14.62;100.00;101288.75;5063384;28;45976;-84
2023/01/01 08:12:26;;;;;;;;;7.67;5.00;;;;;14.60;100.00;101285.41;5063200;28;47506;-83
2023/01/01 08:14:51;;;;;;;;;6.33;6.33;;;;;14.27;100.00;101240.38;5063691;28;45868;-85
2023/01/01 08:17:17;;;;;;;;;8.00;7.00;;;;;14.51;100.00;101282.03;5081972;28;45794;-84
2023/01/01 08:19:43;;;;;;;;;8.00;5.33;;;;;14.43;100.00;101271.44;5061352;28;47529;-84
2023/01/01 08:22:09;;;;;;;;;7.33;7.33;;;;;14.49;100.00;101285.91;5072688;28;45423;-85
2023/01/01 08:24:34;;;;;;;;;5.33;5.33;;;;;14.57;100.00;101309.03;5081892;28;45367;-84
2023/01/01 08:27:00;;;;;;;;;4.33;4.33;;;;;14.61;100.00;101321.03;5052684;28;45277;-88
2023/01/01 08:29:25;;;;;;;;;6.00;5.00;;;;;14.63;100.00;101314.47;5060362;28;47204;-85
2023/01/01 08:31:50;;;;;;;;;6.00;6.00;;;;;14.32;100.00;101263.88;5063360;28;47262;-87
2023/01/01 08:34:16;;;;;;;;;5.33;4.00;;;;;14.47;100.00;101286.09;5060247;28;45702;-87
2023/01/01 08:36:41;;;;;;;;;6.00;6.00;;;;;14.64;100.00;101326.00;5066396;28;45366;-87
2023/01/01 08:39:07;;;;;;;;;5.00;5.00;;;;;14.71;100.00;101336.78;5059962;28;46497;-85
2023/01/01 08:41:33;;;;;;;;;4.67;4.67;;;;;14.55;100.00;101311.91;5060209;28;47260;-86
2023/01/01 08:43:58;;;;;;;;;7.33;7.33;;;;;14.68;100.00;101327.28;5076334;27;45916;-83
2023/01/01 08:46:24;;;;;;;;;6.33;5.00;;;;;14.71;100.00;101334.94;5065414;28;45378;-88
2023/01/01 08:48:49;;;;;;;;;5.00;5.00;;;;;14.67;100.00;101335.50;5050783;28;46397;-86
2023/01/01 08:51:15;;;;;;;;;6.33;4.67;;;;;14.79;100.00;101351.94;5063691;28;46880;-86
2023/01/01 08:53:40;;;;;;;;;7.33;6.00;;;;;14.63;100.00;101327.84;5065451;28;45539;-87
2023/01/01 08:56:08;;;;;;;;;4.67;4.33;;;;;14.75;100.00;101340.72;5054262;28;45296;-85
2023/01/01 08:58:38;;;;;;;;;7.67;7.00;;;;;14.81;100.00;101352.59;5068338;28;45705;-85
2023/01/01 09:01:04;;;;;;;;;4.67;4.67;;;;;14.76;100.00;101348.56;5078458;28;45285;-87
2023/01/01 09:03:29;;;;;;;;;7.33;6.33;;;;;14.78;100.00;101345.75;5073954;28;45441;-87
2023/01/01 09:05:55;;;;;;;;;6.33;5.33;;;;;14.81;100.00;101336.53;5075596;28;45328;-87
2023/01/01 09:08:21;;;;;;;;;5.00;4.00;;;;;14.83;100.00;101350.53;5062146;28;47060;-87
2023/01/01 09:10:47;;;;;;;;;6.00;5.33;;;;;14.83;100.00;101350.53;5067758;28;45962;-87
2023/01/01 09:13:14;;;;;;;;;7.00;7.00;;;;;14.82;100.00;101339.03;5045491;28;45603;-82
2023/01/01 09:15:43;;;;;;;;;7.33;7.33;;;;;14.81;100.00;101332.00;5080880;28;45157;-83
2023/01/01 09:18:09;;;;;;;;;6.00;5.00;;;;;14.82;100.00;101330.16;5080085;28;45452;-83
2023/01/01 09:20:35;;;;;;;;;7.67;7.00;;;;;14.84;100.00;101328.09;5080674;28;46628;-83
2023/01/01 09:23:01;;;;;;;;;7.00;7.00;;;;;14.77;100.00;101314.63;5064324;28;45348;-86
2023/01/01 09:25:26;;;;;;;;;6.00;6.00;;;;;14.79;100.00;101309.13;5065530;28;45332;-89
2023/01/01 09:28:02;;;;;;;;;13.00;11.33;;;;;14.77;100.00;101311.94;5082121;28;45404;-86
2023/01/01 09:30:28;;;;;;;;;13.67;10.33;;;;;14.74;100.00;101299.78;5051793;28;48133;-85
2023/01/01 09:32:53;;;;;;;;;12.67;9.00;;;;;14.73;100.00;101297.31;5059441;28;45581;-84
2023/01/01 09:35:18;;;;;;;;;11.33;10.00;;;;;14.74;100.00;101304.31;5053294;28;45479;-84
2023/01/01 09:37:44;;;;;;;;;8.00;8.00;;;;;14.67;100.00;101290.88;5062208;28;46097;-85
2023/01/01 09:40:40;;;;;;;;;12.33;10.33;;;;;14.83;100.00;101319.25;5056262;28;47009;-86
2023/01/01 09:43:20;;;;;;;;;6.67;6.67;;;;;14.85;100.00;101321.75;5046634;28;45605;-86
2023/01/01 09:46:00;;;;;;;;;6.33;6.33;;;;;14.85;100.00;101316.41;5063710;28;45521;-84
2023/01/01 09:48:28;;;;;;;;;7.00;7.00;;;;;14.77;100.00;101307.44;5076841;28;45324;-86
2023/01/01 09:50:54;;;;;;;;;9.67;7.00;;;;;14.73;100.00;101306.13;5070088;28;46321;-85
2023/01/01 09:53:38;;;;;;;;;8.00;8.00;;;;;14.84;100.00;101323.59;5077666;27;46527;-85
2023/01/01 09:56:04;;;;;;;;;10.00;8.00;;;;;14.80;100.00;101330.34;5066859;28;45310;-87
2023/01/01 09:58:36;;;;;;;;;9.33;9.33;;;;;14.80;100.00;101332.19;5062466;28;45918;-88
2023/01/01 10:01:38;;;;;;;;;8.00;7.67;;;;;14.83;100.00;101337.16;5081528;27;46603;-87
2023/01/01 10:04:29;;;;;;;;;7.00;7.00;;;;;14.79;100.00;101335.88;5050431;28;45431;-86
2023/01/01 10:07:39;;;;;;;;;6.00;5.00;;;;;14.79;100.00;101343.91;5080141;28;45332;-91
2023/01/01 10:10:32;;;;;;;;;7.67;7.33;;;;;14.80;100.00;101341.03;4981058;28;46053;-85
2023/01/01 10:13:07;;;;;;;;;8.00;8.00;;;;;14.81;100.00;101349.91;4998389;28;45446;-86
2023/01/01 10:15:38;;;;;;;;;7.00;7.00;;;;;14.74;100.00;101331.91;5062430;28;45369;-85
2023/01/01 10:18:14;;;;;;;;;9.67;9.67;;;;;14.74;100.00;101326.53;5045471;28;45247;-84
2023/01/01 10:21:06;;;;;;;;;7.00;7.00;;;;;14.85;100.00;101345.84;5078138;28;45371;-84
2023/01/01 10:23:44;;;;;;;;;9.00;7.33;;;;;14.82;100.00;101338.19;5040271;28;46057;-86
2023/01/01 10:26:17;;;;;;;;;9.00;9.00;;;;;14.91;100.00;101357.63;5052911;28;45946;-86
2023/01/01 10:28:50;;;;;;;;;6.67;6.33;;;;;14.70;100.00;101325.25;5065955;28;45309;-86
2023/01/01 10:31:26;;;;;;;;;8.00;8.00;;;;;14.87;100.00;101351.81;5052339;28;46497;-83
2023/01/01 10:33:52;;;;;;;;;7.67;7.00;;;;;14.74;100.00;101323.88;5056264;28;47439;-84
2023/01/01 10:36:18;;;;;;;;;7.67;7.33;;;;;14.88;100.00;101348.94;5069278;28;45284;-83
2023/01/01 10:38:45;;;;;;;;;8.67;8.67;;;;;14.84;100.00;101331.63;5062165;28;45322;-85
2023/01/01 10:41:12;;;;;;;;;9.67;8.33;;;;;14.91;100.00;101334.38;5066350;28;45406;-88
2023/01/01 10:43:38;;;;;;;;;7.00;7.00;;;;;14.92;100.00;101332.50;5061009;28;47213;-86
2023/01/01 10:46:04;;;;;;;;;6.33;6.33;;;;;14.87;100.00;101322.38;5071808;28;45562;-85
2023/01/01 10:48:31;;;;;;;;;11.33;10.33;;;;;14.90;100.00;101316.66;5061334;27;45492;-82
2023/01/01 10:51:04;;;;;;;;;8.67;8.33;;;;;14.91;100.00;101317.50;5054406;28;46013;-85
2023/01/01 10:53:32;;;;;;;;;9.00;9.00;;;;;14.92;100.00;101313.78;5058181;28;45515;-83
2023/01/01 10:56:01;;;;;;;;;9.33;7.33;;;;;14.83;100.00;101302.38;5052930;28;45463;-82
2023/01/01 10:58:43;;;;;;;;;7.67;6.00;;;;;14.91;100.00;101315.66;5064070;27;45815;-85
2023/01/01 11:01:24;;;;;;;;;10.00;10.00;;;;;14.88;100.00;101305.31;5057552;28;46139;-83
2023/01/01 11:03:52;;;;;;;;;8.00;8.00;;;;;14.93;100.00;101308.25;5046033;28;47181;-85
2023/01/01 11:06:38;;;;;;;;;7.00;7.00;;;;;14.91;100.00;101314.81;5065622;28;45443;-85
2023/01/01 11:09:20;;;;;;;;;7.33;6.67;;;;;14.68;100.00;101283.66;5071708;28;45264;-87
2023/01/01 11:11:53;;;;;;;;;5.33;5.33;;;;;14.85;100.00;101306.50;5053415;28;46524;-87
2023/01/01 11:14:21;;;;;;;;;8.33;8.33;;;;;14.82;100.00;101295.38;5068474;28;48427;-87
2023/01/01 11:16:48;;;;;;;;;9.33;9.33;;;;;14.58;100.00;101268.72;5040822;28;45293;-86
2023/01/01 11:19:24;;;;;;;;;10.67;7.67;;;;;14.75;100.00;101284.53;5072332;28;45423;-86
2023/01/01 11:21:49;;;;;;;;;9.33;8.67;;;;;14.43;100.00;101235.84;5071919;28;45360;-91
2023/01/01 11:24:24;;;;;;;;;9.00;8.67;;;;;14.60;100.00;101263.19;5061277;28;47351;-85
2023/01/01 11:26:50;;;;;;;;;12.00;8.00;;;;;14.68;100.00;101270.28;5067692;28;45335;-86
2023/01/01 11:29:16;;;;;;;;;9.67;9.67;;;;;14.74;100.00;101282.91;5079493;28;45358;-84
2023/01/01 11:31:45;;;;;;;;;12.00;10.00;;;;;14.75;100.00;101279.19;5061013;28;45947;-86
2023/01/01 11:34:27;;;;;;;;;8.00;7.67;;;;;14.73;100.00;101282.06;5065944;28;45304;-90
2023/01/01 11:37:07;;;;;;;;;7.33;7.33;;;;;14.74;100.00;101273.03;5061058;28;45451;-86
2023/01/01 11:39:36;;;;;;;;;10.00;9.00;;;;;14.64;100.00;101246.56;5067140;28;45292;-88
2023/01/01 11:42:02;;;;;;;;;10.67;10.33;;;;;14.61;100.00;101240.78;5083310;28;45489;-88
2023/01/01 11:44:36;;;;;;;;;11.33;11.00;;;;;14.72;100.00;101250.13;5052499;28;47671;-87
2023/01/01 11:47:05;;;;;;;;;11.33;11.33;;;;;14.59;100.00;101229.44;5084471;28;45350;-87
2023/01/01 11:49:31;;;;;;;;;13.33;12.00;;;;;14.72;100.00;101237.59;5064405;28;45407;-87
2023/01/01 11:51:57;;;;;;;;;13.33;12.00;;;;;14.68;100.00;101225.63;5054781;28;47307;-86
2023/01/01 11:54:36;;;;;;;;;11.33;10.00;;;;;14.69;100.00;101223.78;5058235;28;47676;-90
2023/01/01 11:57:20;;;;;;;;;15.33;14.00;;;;;14.57;100.00;101212.72;5078520;28;45436;-86
2023/01/01 12:00:00;;;;;;;;;12.67;11.67;;;;;14.61;100.00;101214.84;5070231;28;45327;-85
2023/01/01 12:02:57;;;;;;;;;10.67;10.33;;;;;14.60;100.00;101209.69;5062184;28;46127;-87
2023/01/01 12:05:40;;;;;;;;;10.00;10.00;;;;;14.50;100.00;101202.81;5048111;28;47489;-87
2023/01/01 12:08:09;;;;;;;;;13.00;10.00;;;;;14.52;100.00;101200.75;5070393;28;45268;-87
2023/01/01 12:10:50;;;;;;;;;11.00;10.00;;;;;14.44;100.00;101181.34;5058267;28;45446;-85
2023/01/01 12:13:24;;;;;;;;;7.00;6.33;;;;;14.43;100.00;101180.53;5063317;28;46469;-84
2023/01/01 12:16:13;;;;;;;;;8.67;8.67;;;;;14.42;100.00;101175.38;5078022;28;45315;-85
2023/01/01 12:18:46;;;;;;;;;8.67;8.33;;;;;14.46;100.00;101179.31;5052635;28;46004;-85
2023/01/01 12:21:23;;;;;;;;;9.67;9.67;;;;;14.52;100.00;101186.59;5079315;27;45164;-85
2023/01/01 12:23:49;;;;;;;;;6.33;6.33;;;;;14.51;100.00;101176.88;5073238;28;45426;-87
2023/01/01 12:26:30;;;;;;;;;11.00;9.33;;;;;14.50;100.00;101173.41;5068093;28;46927;-89
2023/01/01 12:29:11;;;;;;;;;11.00;9.00;;;;;14.48;100.00;101178.09;5063771;28;45214;-89
2023/01/01 12:32:03;;;;;;;;;10.00;6.67;;;;;14.43;100.00;101167.16;5061634;28;45435;-88
2023/01/01 12:34:40;;;;;;;;;9.67;9.00;;;;;14.44;100.00;101170.63;5074675;27;45217;-88
2023/01/01 12:37:18;;;;;;;;;8.00;7.00;;;;;14.46;100.00;101173.97;5070642;27;48611;-88
2023/01/01 12:40:14;;;;;;;;;11.00;9.33;;;;;14.43;100.00;101172.50;5083858;28;45322;-85
2023/01/01 12:42:46;;;;;;;;;11.00;9.33;;;;;14.44;100.00;101166.13;5060112;28;45483;-87
2023/01/01 12:45:50;;;;;;;;;10.67;10.67;;;;;14.44;100.00;101163.47;5055874;28;47371;-87
2023/01/01 12:48:34;;;;;;;;;11.00;11.00;;;;;14.42;100.00;101160.13;5057446;28;47423;-85
2023/01/01 12:51:29;;;;;;;;;10.00;8.33;;;;;14.43;100.00;101159.13;5081259;28;44699;-85
2023/01/01 12:54:33;;;;;;;;;13.33;10.33;;;;;14.43;100.00;101161.81;5045359;27;45484;-86
2023/01/01 12:57:28;;;;;;;;;11.33;10.67;;;;;14.43;100.00;101152.94;5053057;28;47248;-85
2023/01/01 12:59:56;;;;;;;;;11.33;11.33;;;;;14.29;100.00;101136.75;5020765;28;47604;-85
2023/01/01 13:02:25;;;;;;;;;14.00;14.00;;;;;14.39;100.00;101152.50;5073140;28;45838;-84
2023/01/01 13:04:55;;;;;;;;;12.33;11.00;;;;;14.35;100.00;101145.88;5051426;28;45386;-84
2023/01/01 13:07:29;;;;;;;;;12.00;12.00;;;;;14.24;100.00;101136.50;5076264;27;45324;-83
2023/01/01 13:09:55;;;;;;;;;12.33;12.33;;;;;14.19;100.00;101139.72;5055109;28;47237;-82
2023/01/01 13:12:24;;;;;;;;;13.67;13.67;;;;;14.22;100.00;101142.03;5072750;28;45450;-83
2023/01/01 13:14:50;;;;;;;;;14.67;13.67;;;;;14.17;100.00;101140.94;5070489;28;45560;-79
2023/01/01 13:17:27;;;;;;;;;13.33;13.00;;;;;14.18;100.00;101138.09;5068167;28;47122;-80
2023/01/01 13:20:05;;;;;;;;;15.00;14.00;;;;;14.18;100.00;101134.56;5080432;28;45446;-81
2023/01/01 13:22:30;;;;;;;;;16.67;14.00;;;;;14.20;100.00;101140.56;5061344;28;45441;-78
2023/01/01 13:25:01;;;;;;;;;12.67;12.67;;;;;14.16;100.00;101136.63;5073398;27;45392;-79
2023/01/01 13:28:03;;;;;;;;;19.00;16.33;;;;;14.14;100.00;101128.78;5071526;28;45584;-79
2023/01/01 13:30:35;;;;;;;;;16.67;15.33;;;;;14.14;100.00;101123.44;5050291;28;46291;-79
2023/01/01 13:33:32;;;;;;;;;12.67;10.67;;;;;14.09;100.00;101129.34;5089999;27;45419;-80
2023/01/01 13:36:10;;;;;;;;;15.67;14.33;;;;;14.02;100.00;101120.44;5049915;28;45545;-79
2023/01/01 13:38:48;;;;;;;;;13.33;13.33;;;;;13.97;100.00;101123.66;5043534;28;47205;-82
2023/01/01 13:41:28;;;;;;;;;14.67;11.67;;;;;13.89;100.00;101113.91;5042009;28;47236;-83
2023/01/01 13:44:00;;;;;;;;;12.33;11.33;;;;;13.92;100.00;101115.38;5044348;28;45481;-82
2023/01/01 13:46:54;;;;;;;;;16.67;12.67;;;;;13.65;100.00;101072.34;5069360;28;45419;-83
2023/01/01 13:49:50;;;;;;;;;13.33;12.67;;;;;13.91;100.00;101112.91;5060525;27;45588;-84
2023/01/01 13:52:42;;;;;;;;;14.00;13.67;;;;;13.77;100.00;101091.38;5065536;27;46206;-83
2023/01/01 13:55:35;;;;;;;;;15.00;13.00;;;;;13.85;100.00;101101.09;5069539;28;45339;-85
2023/01/01 13:58:17;;;;;;;;;16.00;15.33;;;;;13.66;100.00;101083.81;5045500;28;45368;-84
2023/01/01 14:01:13;;;;;;;;;14.33;13.67;;;;;13.66;100.00;101083.81;5068298;28;45304;-83
2023/01/01 14:03:47;;;;;;;;;14.33;12.67;;;;;13.73;100.00;101100.75;5071863;28;45396;-83
2023/01/01 14:06:28;;;;;;;;;15.00;13.00;;;;;13.70;100.00;101083.28;5067915;28;45397;-84
2023/01/01 14:09:11;;;;;;;;;13.67;13.67;;;;;13.67;100.00;101067.63;5075337;28;45265;-84
2023/01/01 14:11:37;;;;;;;;;14.67;13.67;;;;;13.74;100.00;101075.72;5069988;28;46358;-82
2023/01/01 14:14:16;;;;;;;;;14.67;12.00;;;;;13.63;100.00;101053.00;5067339;28;46394;-83
2023/01/01 14:16:41;;;;;;;;;15.00;14.00;;;;;13.39;100.00;101004.19;5065216;28;45436;-83
2023/01/01 14:19:09;;;;;;;;;15.67;14.00;;;;;13.69;100.00;101048.72;5072713;28;45873;-82
2023/01/01 14:21:37;;;;;;;;;13.00;13.00;;;;;13.71;100.00;101050.19;5062727;28;45458;-82
2023/01/01 14:24:07;;;;;;;;;15.67;15.00;;;;;13.74;100.00;101055.16;5074407;28;47384;-83
2023/01/01 14:26:37;;;;;;;;;14.00;13.33;;;;;13.76;100.00;101058.50;5047443;27;45522;-81
2023/01/01 14:29:07;;;;;;;;;14.67;13.67;;;;;13.67;100.00;101027.56;5067683;28;45525;-83
2023/01/01 14:31:40;;;;;;;;;13.00;13.00;;;;;13.77;100.00;101048.63;5066626;28;45509;-81
2023/01/01 14:34:28;;;;;;;;;15.33;15.33;;;;;13.79;100.00;101051.94;5068422;28;45491;-82
2023/01/01 14:36:57;;;;;;;;;18.33;17.33;;;;;13.75;100.00;101035.47;5061893;28;45317;-83
2023/01/01 14:39:31;;;;;;;;;15.67;15.67;;;;;13.74;100.00;101025.78;5064433;28;45462;-80
2023/01/01 14:42:12;;;;;;;;;16.00;15.67;;;;;13.69;100.00;101016.69;5069690;28;45446;-83
2023/01/01 14:44:41;;;;;;;;;16.67;13.67;;;;;13.66;100.00;101012.56;5051262;28;48352;-83
2023/01/01 14:47:24;;;;;;;;;13.00;13.00;;;;;13.53;100.00;101005.19;5066189;28;45250;-79
2023/01/01 14:49:51;;;;;;;;;13.00;13.00;;;;;13.61;100.00;101039.81;5054171;28;45489;-80
2023/01/01 14:52:25;;;;;;;;;14.33;12.67;;;;;13.59;100.00;101028.47;5056780;28;47481;-81
2023/01/01 14:54:51;;;;;;;;;11.67;11.67;;;;;13.49;100.00;101012.78;5069143;28;46067;-81
2023/01/01 14:57:25;;;;;;;;;13.33;13.33;;;;;13.42;100.00;101009.16;5049059;28;45580;-82
2023/01/01 14:59:53;;;;;;;;;14.67;13.33;;;;;13.54;100.00;101008.69;5046890;28;45321;-81
2023/01/01 15:02:31;;;;;;;;;17.33;15.00;;;;;13.51;100.00;100988.56;5066360;28;45351;-81
2023/01/01 15:04:58;;;;;;;;;12.33;11.67;;;;;13.48;100.00;100988.91;5070415;28;45407;-81
2023/01/01 15:07:29;;;;;;;;;11.00;11.00;;;;;13.39;100.00;100975.63;5056910;28;45335;-80
2023/01/01 15:09:59;;;;;;;;;12.33;10.67;;;;;13.49;100.00;100986.06;5052280;28;45483;-83
2023/01/01 15:12:25;;;;;;;;;14.33;13.67;;;;;13.36;100.00;100968.03;5051334;28;46564;-84
2023/01/01 15:14:53;;;;;;;;;13.33;12.67;;;;;13.44;100.00;100980.41;5067099;28;45525;-80
2023/01/01 15:17:21;;;;;;;;;16.00;14.33;;;;;13.44;100.00;100991.09;5077963;28;45307;-80
2023/01/01 15:19:59;;;;;;;;;15.33;13.33;;;;;13.45;100.00;100978.59;5060837;28;45448;-79
2023/01/01 15:22:30;;;;;;;;;16.33;13.00;;;;;13.41;100.00;100975.44;5069138;27;45556;-81
2023/01/01 15:24:56;;;;;;;;;13.33;13.00;;;;;13.44;100.00;100977.75;5059397;28;48528;-79
2023/01/01 15:27:34;;;;;;;;;14.00;14.00;;;;;13.48;100.00;100976.38;5077045;28;45450;-86
2023/01/01 15:30:28;;;;;;;;;14.00;11.33;;;;;13.40;100.00;100949.78;5079594;27;48320;-87
2023/01/01 15:32:54;;;;;;;;;15.00;15.00;;;;;13.15;100.00;100886.06;5049005;28;46751;-85
2023/01/01 15:35:36;;;;;;;;;29.00;25.33;;;;;13.47;100.00;100917.84;5078472;27;46414;-84
2023/01/01 15:38:11;;;;;;;;;17.00;16.67;;;;;13.34;100.00;100918.50;5062821;28;45685;-84
2023/01/01 15:41:21;;;;;;;;;17.00;16.00;;;;;13.40;100.00;100925.75;5095197;27;45456;-89
2023/01/01 15:43:49;;;;;;;;;13.33;13.33;;;;;13.38;100.00;100930.47;5058200;28;45637;-87
2023/01/01 15:49:32;;;;;;;;;16.00;16.00;;;;;13.35;100.00;100906.81;5058176;28;45454;-87
2023/01/01 15:52:03;;;;;;;;;14.67;13.67;;;;;13.27;100.00;100894.41;5038496;28;45399;-84
2023/01/01 15:54:38;;;;;;;;;16.67;16.67;;;;;12.97;100.00;100843.78;5054303;28;46255;-86
2023/01/01 15:57:28;;;;;;;;;;;;;;;;;;;;;
2023/01/01 15:59:54;;;;;;;;;21.33;20.00;;;;;13.02;100.00;100843.22;5060854;28;72876;-79
2023/01/01 16:02:29;;;;;;;;;26.00;26.00;;;;;13.18;100.00;100863.50;5041240;28;45526;-81
2023/01/01 16:04:55;;;;;;;;;25.33;24.00;;;;;13.21;100.00;100863.13;5059140;28;45515;-82
2023/01/01 16:07:28;;;;;;;;;26.00;24.33;;;;;13.25;100.00;100867.06;5069289;28;46208;-81
2023/01/01 16:09:54;;;;;;;;;18.33;18.33;;;;;13.21;100.00;100847.97;5081229;28;45759;-81
2023/01/01 16:12:19;;;;;;;;;18.33;17.67;;;;;13.36;100.00;100881.78;5080600;28;45454;-81
2023/01/01 16:14:45;;;;;;;;;16.33;16.00;;;;;13.41;100.00;100886.53;5081692;28;45456;-80
2023/01/01 16:17:19;;;;;;;;;11.67;11.00;;;;;13.16;100.00;100831.69;5082025;28;45245;-81
2023/01/01 16:19:46;;;;;;;;;11.67;11.67;;;;;13.36;100.00;100866.59;5081902;28;45455;-80
2023/01/01 16:22:14;;;;;;;;;14.00;14.00;;;;;13.34;100.00;100865.09;5082938;28;46041;-80
2023/01/01 16:24:56;;;;;;;;;15.33;13.00;;;;;13.26;100.00;100852.72;5082342;28;45367;-81
2023/01/01 16:27:21;;;;;;;;;10.67;10.67;;;;;13.29;100.00;100848.84;5062970;28;48303;-82
2023/01/01 16:29:47;;;;;;;;;13.67;12.00;;;;;13.06;100.00;100809.81;5063157;28;45369;-83
2023/01/01 16:32:16;;;;;;;;;12.00;12.00;;;;;13.32;100.00;100854.63;5078468;28;45499;-81
2023/01/01 16:34:42;;;;;;;;;14.33;13.33;;;;;13.21;100.00;100828.44;5074155;27;45528;-81
2023/01/01 16:37:07;;;;;;;;;13.00;11.33;;;;;12.96;100.00;100788.78;5058968;28;47414;-81
2023/01/01 16:39:32;;;;;;;;;13.67;13.67;;;;;13.26;100.00;100836.72;5080633;28;45652;-81
2023/01/01 16:41:58;;;;;;;;;13.00;13.00;;;;;13.27;100.00;100835.69;5080435;28;45402;-81
2023/01/01 16:44:23;;;;;;;;;12.67;12.00;;;;;13.31;100.00;100852.13;5062398;28;46997;-82
2023/01/01 16:46:48;;;;;;;;;12.33;12.00;;;;;13.23;100.00;100843.25;5062299;28;48698;-81
2023/01/01 16:49:14;;;;;;;;;14.33;13.67;;;;;13.33;100.00;100855.47;5081473;28;45363;-80
2023/01/01 16:51:39;;;;;;;;;13.67;13.00;;;;;13.32;100.00;100843.94;5062750;28;45557;-80
2023/01/01 16:54:04;;;;;;;;;13.67;13.67;;;;;13.32;100.00;100837.78;5059290;28;46278;-79
2023/01/01 16:56:30;;;;;;;;;14.33;14.33;;;;;13.21;100.00;100829.28;5078913;28;45370;-80
2023/01/01 16:58:55;;;;;;;;;12.67;12.67;;;;;13.07;100.00;100798.13;5060140;28;45689;-81
2023/01/01 17:01:22;;;;;;;;;14.00;14.00;;;;;13.14;100.00;100809.69;5080399;28;45330;-82
2023/01/01 17:03:47;;;;;;;;;13.33;13.33;;;;;13.30;100.00;100829.13;5080036;28;45287;-81
2023/01/01 17:06:13;;;;;;;;;15.00;15.00;;;;;13.12;100.00;100801.88;5082224;27;45342;-81
2023/01/01 17:09:31;;;;;;;;;15.33;14.67;;;;;12.91;100.00;100767.16;5076492;27;45922;-82
2023/01/01 17:11:56;;;;;;;;;14.00;13.33;;;;;12.95;100.00;100771.09;5032567;27;45455;-80
2023/01/01 17:14:22;;;;;;;;;15.67;14.67;;;;;13.37;100.00;100824.69;5076781;27;45520;-79
2023/01/01 17:16:47;;;;;;;;;15.33;15.33;;;;;13.32;100.00;100813.78;5079526;27;45916;-79
2023/01/01 17:19:12;;;;;;;;;11.33;10.33;;;;;13.34;100.00;100801.88;5081131;27;45315;-79
2023/01/01 17:21:38;;;;;;;;;12.67;11.67;;;;;13.35;100.00;100787.50;5080701;27;45394;-78
2023/01/01 17:24:07;;;;;;;;;11.00;10.67;;;;;13.24;100.00;100778.19;5078325;27;45281;-79
2023/01/01 17:26:40;;;;;;;;;15.67;13.00;;;;;13.36;100.00;100791.00;5068237;27;48481;-80
2023/01/01 17:29:06;;;;;;;;;11.33;11.33;;;;;13.09;100.00;100737.41;5053409;27;45488;-80